Stations météo

réclame
Mon MeteoGroup
Baza, Espagne (8424): Température de l'air & dewpoint: 19.02.2018 10:00:00 - 25.02.2018 10:00:00 (CET)Baza, Espagne (8424): Vitesse du vent & gusts: 19.02.2018 10:00:00 - 25.02.2018 10:00:00 (CET)Baza, Espagne (8424): Direction du vent: 19.02.2018 10:00:00 - 25.02.2018 10:00:00 (CET)Baza, Espagne (8424): visibility: 19.02.2018 10:00:00 - 25.02.2018 10:00:00 (CET)Baza, Espagne (8424): Ensoleillement: 19.02.2018 10:00:00 - 25.02.2018 10:00:00 (CET)Baza, Espagne (8424): Quantités de précipitations: 19.02.2018 10:00:00 - 25.02.2018 10:00:00 (CET)
Date & Time tt [°C] td [°C] ff [km/h] ff [knt] fx [km/h] fx [knt] dd vv [km] sd [min] rr [mm]
25.02.2018 10:00:00 - - - - - - - - - -
25.02.2018 09:00:00 - - - - - - - - - -
25.02.2018 08:00:00 - - - - - - - - - -
25.02.2018 07:00:00 - - - - - - - - - -
25.02.2018 06:00:00 - - - - - - - - - -
25.02.2018 05:00:00 - - - - - - - - - -
25.02.2018 04:00:00 - - - - - - - - - -
25.02.2018 03:00:00 - - - - - - - - - -
25.02.2018 02:00:00 - - - - - - - - - -
25.02.2018 01:00:00 - - - - - - - - - -
25.02.2018 00:00:00 - - - - - - - - - -
24.02.2018 23:00:00 - - - - - - - - - -
24.02.2018 22:00:00 - - - - - - - - - -
24.02.2018 21:00:00 - - - - - - - - - -
24.02.2018 20:00:00 - - - - - - - - - -
24.02.2018 19:00:00 - - - - - - - - - -
24.02.2018 18:00:00 - - - - - - - - - -
24.02.2018 17:00:00 - - - - - - - - - -
24.02.2018 16:00:00 - - - - - - - - - -
24.02.2018 15:00:00 - - - - - - - - - -
24.02.2018 14:00:00 - - - - - - - - - -
24.02.2018 13:00:00 - - - - - - - - - -
24.02.2018 12:00:00 - - - - - - - - - -
24.02.2018 11:00:00 - - - - - - - - - -
24.02.2018 10:00:00 - - - - - - - - - -
24.02.2018 09:00:00 - - - - - - - - - -
24.02.2018 08:00:00 - - - - - - - - - -
24.02.2018 07:00:00 - - - - - - - - - -
24.02.2018 06:00:00 - - - - - - - - - -
24.02.2018 05:00:00 - - - - - - - - - -
24.02.2018 04:00:00 - - - - - - - - - -
24.02.2018 03:00:00 - - - - - - - - - -
24.02.2018 02:00:00 - - - - - - - - - -
24.02.2018 01:00:00 - - - - - - - - - -
24.02.2018 00:00:00 - - - - - - - - - -
23.02.2018 23:00:00 - - - - - - - - - -
23.02.2018 22:00:00 - - - - - - - - - -
23.02.2018 21:00:00 - - - - - - - - - -
23.02.2018 20:00:00 - - - - - - - - - -
23.02.2018 19:00:00 - - - - - - - - - -
23.02.2018 18:00:00 - - - - - - - - - -
23.02.2018 17:00:00 - - - - - - - - - -
23.02.2018 16:00:00 - - - - - - - - - -
23.02.2018 15:00:00 - - - - - - - - - -
23.02.2018 14:00:00 - - - - - - - - - -
23.02.2018 13:00:00 - - - - - - - - - -
23.02.2018 12:00:00 - - - - - - - - - -
23.02.2018 11:00:00 - - - - - - - - - -
23.02.2018 10:00:00 - - - - - - - - - -
23.02.2018 09:00:00 - - - - - - - - - -
23.02.2018 08:00:00 - - - - - - - - - -
23.02.2018 07:00:00 - - - - - - - - - -
23.02.2018 06:00:00 - - - - - - - - - -
23.02.2018 05:00:00 - - - - - - - - - -
23.02.2018 04:00:00 - - - - - - - - - -
23.02.2018 03:00:00 - - - - - - - - - -
23.02.2018 02:00:00 - - - - - - - - - -
23.02.2018 01:00:00 3,0 -7,5 7 4 13 7 WSW 20 0 -
23.02.2018 00:00:00 4,1 -7,8 9 5 16 9 W 20 0 0,0
22.02.2018 23:00:00 4,3 -7,5 8 4 24 13 W 20 0 0,0
22.02.2018 22:00:00 5,5 -8,2 14 8 24 13 WSW 20 0 0,0
22.02.2018 21:00:00 6,2 -8,6 14 7 27 14 W 20 0 0,0
22.02.2018 20:00:00 6,5 -8,2 14 8 29 16 W 20 0 0,0
22.02.2018 19:00:00 7,4 -7,8 19 11 40 22 WNW 20 47 -
22.02.2018 18:00:00 9,3 -8,2 25 14 46 25 WNW 20 47 0,0
22.02.2018 17:00:00 10,2 -8,6 32 17 45 25 W 20 51 0,0
22.02.2018 16:00:00 10,3 -7,1 27 15 45 24 W 20 60 0,0
22.02.2018 15:00:00 10,6 -7,1 28 15 45 24 WNW 20 60 0,0
22.02.2018 14:00:00 10,4 -3,6 25 14 41 22 WNW 20 60 0,0
22.02.2018 13:00:00 9,7 -3,6 19 10 36 19 WNW 20 60 -
22.02.2018 12:00:00 7,5 -3,3 20 11 31 17 WNW 20 60 0,0
22.02.2018 11:00:00 5,7 -3,0 18 10 27 15 WNW 20 60 0,0
22.02.2018 10:00:00 2,8 -2,7 10 5 17 9 NW 20 14 0,0
22.02.2018 09:00:00 -1,8 -2,7 3 1 5 3 ESE 13 0 0,0
22.02.2018 08:00:00 -2,9 -4,2 4 2 7 4 S 8 0 0,0
22.02.2018 07:00:00 -1,9 -3,0 3 2 8 5 ENE 11 0 -
22.02.2018 06:00:00 -1,2 -2,2 8 4 10 5 SSE 9 0 0,0
22.02.2018 05:00:00 -0,3 -1,7 8 5 10 5 SE 14 0 0,0
22.02.2018 04:00:00 1,6 -0,5 8 4 14 8 ESE 20 0 0,0
22.02.2018 03:00:00 2,8 0,0 10 5 14 8 S 20 0 0,0
22.02.2018 02:00:00 3,8 -3,3 8 5 16 8 S 20 0 0,0
22.02.2018 01:00:00 5,1 -4,8 9 5 22 12 W 20 0 -
22.02.2018 00:00:00 6,7 -5,1 3 2 19 10 NE 20 0 0,0
21.02.2018 23:00:00 7,3 -5,7 9 5 21 11 WSW 20 0 0,0
21.02.2018 22:00:00 7,4 -5,7 11 6 21 11 W 20 0 0,0
21.02.2018 21:00:00 7,5 -5,7 11 6 24 13 WSW 19 0 0,0
21.02.2018 20:00:00 7,7 -5,4 13 7 27 15 WSW 20 0 0,0
21.02.2018 19:00:00 7,9 -6,4 19 11 34 18 W 20 15 -
21.02.2018 18:00:00 9,4 -6,4 18 10 41 22 W 20 24 0,0
21.02.2018 17:00:00 9,6 -6,4 22 12 39 21 W 20 36 0,0
21.02.2018 16:00:00 10,1 -6,0 24 13 40 21 WNW 20 35 0,0
21.02.2018 15:00:00 9,8 -3,6 18 10 39 21 WNW 20 16 0,0
21.02.2018 14:00:00 10,6 -5,7 16 9 41 22 NW 20 36 0,0
21.02.2018 13:00:00 10,8 -2,0 24 13 40 22 W 20 60 -
21.02.2018 12:00:00 9,4 -1,7 22 12 38 21 W 20 60 0,0
21.02.2018 11:00:00 7,7 -2,5 26 14 42 23 W 20 60 0,0
21.02.2018 10:00:00 6,2 -2,2 28 15 48 26 W 20 14 0,0
21.02.2018 09:00:00 5,2 -1,7 28 15 44 24 W 20 0 0,0
21.02.2018 08:00:00 4,7 -2,0 30 16 47 25 W 20 0 0,0
21.02.2018 07:00:00 4,9 -1,4 21 11 44 24 WSW 20 0 -
21.02.2018 06:00:00 5,7 -1,2 14 7 34 19 WNW 20 0 0,0
21.02.2018 05:00:00 6,5 0,2 13 7 36 20 NNW 20 0 0,0
21.02.2018 04:00:00 6,8 0,6 18 10 30 16 W 20 0 0,0
21.02.2018 03:00:00 6,9 0,6 11 6 31 17 WSW 20 0 0,0
21.02.2018 02:00:00 8,3 0,4 16 9 36 19 W 20 0 0,0
21.02.2018 01:00:00 9,0 0,4 15 8 24 13 W 20 0 -
21.02.2018 00:00:00 9,3 0,4 17 9 23 13 W 20 0 0,0
20.02.2018 23:00:00 9,4 1,3 13 7 21 11 W 20 0 0,0
20.02.2018 22:00:00 10,4 1,7 14 8 24 13 W 20 0 0,0
20.02.2018 21:00:00 11,1 1,9 18 10 26 14 W 20 0 0,0
20.02.2018 20:00:00 11,4 1,9 12 6 21 11 W 20 0 0,0
20.02.2018 19:00:00 12,1 1,7 13 7 26 14 W 20 38 -
20.02.2018 18:00:00 14,3 1,5 17 9 35 19 W 20 41 0,0
20.02.2018 17:00:00 15,4 1,1 16 9 37 20 WNW 20 57 0,0
20.02.2018 16:00:00 15,1 1,9 22 12 35 19 W 20 57 0,0
20.02.2018 15:00:00 14,1 2,1 21 11 37 20 W 20 55 0,0
20.02.2018 14:00:00 13,9 2,1 22 12 36 19 W 20 60 0,0
20.02.2018 13:00:00 12,7 2,5 24 13 38 21 W 20 60 -
20.02.2018 12:00:00 11,8 2,9 20 11 32 18 W 20 60 0,0
20.02.2018 11:00:00 9,9 2,5 18 10 29 16 W 20 60 0,0
20.02.2018 10:00:00 3,8 2,3 6 3 10 5 NNW 20 13 0,0
20.02.2018 09:00:00 0,0 -0,5 2 1 8 4 NNE 11 0 0,0
20.02.2018 08:00:00 -0,5 -1,0 5 3 10 5 SW 7 0 0,0
20.02.2018 07:00:00 -0,9 -1,7 6 3 8 4 SSE 10 0 -
20.02.2018 06:00:00 -0,1 -1,0 2 1 6 3 S 6 0 0,0
20.02.2018 05:00:00 0,6 -0,3 3 1 9 5 WNW 15 0 0,0
20.02.2018 04:00:00 0,7 -0,3 7 4 10 6 SSE 15 0 0,0
20.02.2018 03:00:00 1,6 -0,3 4 2 8 4 SE 12 0 0,0
20.02.2018 02:00:00 2,9 0,6 3 2 9 5 S 20 0 0,0
20.02.2018 01:00:00 4,0 1,1 8 4 11 6 S 20 0 -
20.02.2018 00:00:00 4,8 1,3 9 5 13 7 SE 20 0 0,0
19.02.2018 23:00:00 6,5 2,5 5 3 13 7 S 20 0 0,0
19.02.2018 22:00:00 8,2 3,9 8 4 13 7 ESE 15 0 0,0
19.02.2018 21:00:00 9,1 0,9 6 4 14 8 ESE 20 0 0,0
19.02.2018 20:00:00 11,1 0,9 11 6 19 10 W 20 0 0,0
19.02.2018 19:00:00 12,2 -1,7 9 5 19 11 W 20 44 -
19.02.2018 18:00:00 14,3 -1,7 12 7 20 11 W 20 39 0,0
19.02.2018 17:00:00 15,2 -1,0 8 4 16 9 WNW 20 57 0,0
19.02.2018 16:00:00 15,1 0,2 9 5 21 12 W 20 60 0,0
19.02.2018 15:00:00 13,9 3,0 6 3 19 10 N 20 60 0,0
19.02.2018 14:00:00 12,0 5,1 6 3 19 10 WNW 20 42 0,0
19.02.2018 13:00:00 9,7 5,5 13 7 18 10 N 16 0 -
19.02.2018 12:00:00 - - - - - - - - - -
19.02.2018 11:00:00 8,5 5,8 3 1 6 3 N 20 11 0,0
19.02.2018 10:00:00 7,0 5,3 4 2 6 3 SW 14 0 0,0

tt = Température de l'air
td = dewpoint
ff = Vitesse du vent
fx = gusts
dd = Direction du vent
vv = visibility
sd = Ensoleillement
rr = Quantités de précipitations

stations d'obs. à proximité